createdAt,value
2019-04-03T00:11:04.126Z,99576.11
2019-04-03T00:13:51.510Z,99576.08
2019-04-03T00:16:38.798Z,99576.86
2019-04-03T00:28:58.717Z,99586.19
2019-04-03T00:38:00.782Z,99564.80
2019-04-03T00:40:47.545Z,99563.17
2019-04-03T00:43:34.220Z,99551.77
2019-04-03T00:46:21.011Z,99559.87
2019-04-03T00:49:08.279Z,99556.72
2019-04-03T00:58:32.758Z,99548.58
2019-04-03T01:07:31.772Z,99527.33
2019-04-03T01:10:18.653Z,99527.83
2019-04-03T01:13:05.954Z,99529.15
2019-04-03T01:16:07.259Z,99536.70
2019-04-03T01:18:54.006Z,99543.99
2019-04-03T01:24:47.633Z,99541.26
2019-04-03T01:27:35.745Z,99543.28
2019-04-03T01:30:37.019Z,99544.59
2019-04-03T01:33:23.775Z,99541.89
2019-04-03T01:36:10.957Z,99529.62
2019-04-03T02:00:42.428Z,99544.68
2019-04-03T02:03:29.594Z,99556.83
2019-04-03T02:09:22.929Z,99540.88
2019-04-03T02:12:10.195Z,99541.34
2019-04-03T02:14:57.434Z,99550.31
2019-04-03T02:17:44.865Z,99554.83
2019-04-03T02:20:31.626Z,99548.59
2019-04-03T02:23:18.387Z,99540.50
2019-04-03T02:26:07.983Z,99536.19
2019-04-03T02:35:08.435Z,99535.27
2019-04-03T02:37:54.935Z,99534.01
2019-04-03T02:40:42.358Z,99530.94
2019-04-03T02:43:30.297Z,99534.43
2019-04-03T02:52:28.826Z,99536.70
2019-04-03T02:55:15.797Z,99530.26
2019-04-03T02:58:02.723Z,99536.11
2019-04-03T03:00:49.573Z,99533.52
2019-04-03T03:03:50.849Z,99532.01
2019-04-03T03:06:37.995Z,99521.86
2019-04-03T03:09:24.779Z,99515.39
2019-04-03T03:12:11.750Z,99517.52
2019-04-03T03:14:59.363Z,99515.88
2019-04-03T03:17:46.407Z,99507.03
2019-04-03T03:20:33.383Z,99490.47
2019-04-03T03:23:23.391Z,99485.08
2019-04-03T03:26:09.128Z,99489.77
2019-04-03T03:28:55.987Z,99511.50
2019-04-03T03:32:05.588Z,99509.70
2019-04-03T03:34:47.638Z,99488.22
2019-04-03T03:37:17.901Z,99476.19
2019-04-03T03:40:05.533Z,99494.49
2019-04-03T03:42:52.432Z,99507.41
2019-04-03T03:45:40.512Z,99502.69
2019-04-03T03:48:27.418Z,99504.45
2019-04-03T03:51:14.281Z,99501.78
2019-04-03T03:54:01.392Z,99492.31
2019-04-03T03:56:48.207Z,99496.52
2019-04-03T03:59:35.528Z,99496.36
2019-04-03T04:02:22.646Z,99489.06
2019-04-03T04:05:11.584Z,99493.09
2019-04-03T04:07:56.746Z,99478.97
2019-04-03T04:10:43.465Z,99481.08
2019-04-03T04:13:30.898Z,99481.77
2019-04-03T04:16:19.032Z,99482.08
2019-04-03T04:22:15.534Z,99485.09
2019-04-03T04:24:59.899Z,99487.66
2019-04-03T04:27:46.060Z,99486.92
2019-04-03T04:30:36.859Z,99488.16
2019-04-03T04:33:24.096Z,99488.45
2019-04-03T04:39:17.275Z,99486.47
2019-04-03T04:42:04.768Z,99484.06
2019-04-03T04:44:51.659Z,99487.53
2019-04-03T04:57:08.263Z,99472.78
2019-04-03T05:06:05.578Z,99471.99
2019-04-03T05:08:52.480Z,99471.99
2019-04-03T05:11:39.538Z,99486.27
2019-04-03T05:14:26.892Z,99489.47
2019-04-03T05:17:13.816Z,99489.84
2019-04-03T05:20:01.607Z,99486.15
2019-04-03T05:22:48.713Z,99493.14
2019-04-03T05:50:26.362Z,99506.44
2019-04-03T05:53:12.466Z,99505.47
2019-04-03T05:56:00.072Z,99502.35
2019-04-03T05:58:55.583Z,99500.36
2019-04-03T06:01:34.506Z,99500.95
2019-04-03T06:04:21.396Z,99496.95
2019-04-03T06:07:17.532Z,99486.23
2019-04-03T06:10:02.887Z,99485.03
2019-04-03T06:12:49.679Z,99481.91
2019-04-03T06:18:43.622Z,99495.27
2019-04-03T06:21:30.870Z,99497.20
2019-04-03T06:33:36.597Z,99495.80
2019-04-03T06:36:22.747Z,99490.95
2019-04-03T06:45:21.707Z,99477.13
2019-04-03T06:48:09.176Z,99482.64
2019-04-03T06:50:56.395Z,99480.98
2019-04-03T06:59:56.251Z,99473.89
2019-04-03T07:02:43.326Z,99467.48
2019-04-03T07:05:30.187Z,99466.21
2019-04-03T07:23:48.031Z,99473.02
2019-04-03T07:26:35.754Z,99479.03
2019-04-03T07:29:25.575Z,99472.64
2019-04-03T07:35:30.894Z,99466.70
2019-04-03T07:38:18.096Z,99456.45
2019-04-03T07:44:27.681Z,99467.27
2019-04-03T07:47:13.377Z,99475.95
2019-04-03T07:50:00.534Z,99478.34
2019-04-03T07:52:48.923Z,99477.13
2019-04-03T07:58:41.763Z,99462.25
2019-04-03T08:01:28.772Z,99450.39
2019-04-03T08:04:16.701Z,99449.38
2019-04-03T08:07:03.581Z,99447.70
2019-04-03T08:09:50.327Z,99446.67
2019-04-03T08:12:37.281Z,99437.90
2019-04-03T08:15:24.256Z,99438.27
2019-04-03T08:18:11.738Z,99437.94
2019-04-03T08:21:01.544Z,99437.59
2019-04-03T08:29:58.000Z,99438.27
2019-04-03T08:32:47.358Z,99436.61
2019-04-03T08:38:38.577Z,99440.52
2019-04-03T08:44:33.848Z,99439.03
2019-04-03T08:47:19.485Z,99440.83
2019-04-03T08:56:18.532Z,99432.15
2019-04-03T08:59:05.218Z,99432.69
2019-04-03T09:01:55.103Z,99434.58
2019-04-03T09:13:58.389Z,99432.61
2019-04-03T09:16:45.335Z,99424.61
2019-04-03T09:19:32.074Z,99421.27
2019-04-03T09:22:21.620Z,99418.03
2019-04-03T09:25:14.818Z,99418.77
2019-04-03T09:31:08.042Z,99415.98
2019-04-03T09:33:56.970Z,99418.64
2019-04-03T09:36:41.974Z,99420.89
2019-04-03T09:42:34.715Z,99419.28
2019-04-03T09:45:21.854Z,99413.77
2019-04-03T09:51:17.605Z,99400.89
2019-04-03T09:54:02.391Z,99398.80
2019-04-03T09:59:55.851Z,99388.34
2019-04-03T10:02:43.371Z,99377.23
2019-04-03T10:05:30.072Z,99380.88
2019-04-03T10:14:30.109Z,99382.25
2019-04-03T10:17:16.897Z,99377.80
2019-04-03T10:20:07.310Z,99372.91
2019-04-03T10:23:08.276Z,99375.97
2019-04-03T10:25:56.826Z,99369.14
2019-04-03T10:31:56.928Z,99367.45
2019-04-03T10:34:43.782Z,99368.27
2019-04-03T10:37:46.627Z,99361.09
2019-04-03T10:40:32.284Z,99362.59
2019-04-03T10:43:20.236Z,99365.57
2019-04-03T10:46:07.986Z,99354.03
2019-04-03T10:49:09.483Z,99354.05
2019-04-03T10:51:57.309Z,99348.12
2019-04-03T10:54:44.348Z,99338.53
2019-04-03T10:57:35.487Z,99336.59
2019-04-03T11:00:24.608Z,99337.44
2019-04-03T11:03:10.560Z,99339.33
2019-04-03T11:05:57.463Z,99333.83
2019-04-03T11:08:44.352Z,99343.58
2019-04-03T11:14:13.109Z,99346.75
2019-04-03T11:17:00.574Z,99339.71
2019-04-03T11:19:47.604Z,99335.22
2019-04-03T11:22:41.280Z,99337.34
2019-04-03T11:25:21.596Z,99337.59
2019-04-03T11:28:08.360Z,99331.88
2019-04-03T11:30:56.338Z,99337.92
2019-04-03T11:33:44.578Z,99336.64
2019-04-03T11:36:30.788Z,99341.28
2019-04-03T11:39:16.928Z,99341.28
2019-04-03T11:42:04.205Z,99345.98
2019-04-03T11:44:51.526Z,99344.66
2019-04-03T11:47:38.091Z,99345.41
2019-04-03T11:50:25.394Z,99338.25
2019-04-03T11:53:11.770Z,99337.80
2019-04-03T11:55:58.693Z,99337.47
2019-04-03T11:58:46.829Z,99339.13
2019-04-03T12:01:33.523Z,99324.66
2019-04-03T12:04:21.278Z,99325.23
2019-04-03T12:10:14.742Z,99306.87
2019-04-03T12:13:03.762Z,99303.61
2019-04-03T12:15:52.508Z,99287.00
2019-04-03T12:18:36.230Z,99274.40
2019-04-03T12:24:43.885Z,99258.64
2019-04-03T12:30:36.264Z,99252.75
2019-04-03T12:33:23.708Z,99257.98
2019-04-03T12:36:13.254Z,99259.54
2019-04-03T12:38:58.057Z,99252.95
2019-04-03T12:41:44.983Z,99261.69
2019-04-03T12:44:32.370Z,99255.34
2019-04-03T12:47:19.858Z,99251.80
2019-04-03T12:50:07.614Z,99243.59
2019-04-03T12:53:08.787Z,99239.70
2019-04-03T12:55:57.699Z,99229.23
2019-04-03T12:58:43.398Z,99230.44
2019-04-03T13:01:30.227Z,99230.27
2019-04-03T13:04:17.586Z,99225.42
2019-04-03T13:07:05.789Z,99225.88
2019-04-03T13:12:57.844Z,99220.36
2019-04-03T13:15:44.939Z,99208.39
2019-04-03T13:18:32.109Z,99212.25
2019-04-03T13:21:18.671Z,99215.89
2019-04-03T13:24:05.348Z,99212.98
2019-04-03T13:29:58.141Z,99205.25
2019-04-03T13:32:56.722Z,99199.09
2019-04-03T13:35:31.913Z,99197.48
2019-04-03T13:38:32.951Z,99200.29
2019-04-03T13:41:19.673Z,99198.41
2019-04-03T13:44:06.955Z,99201.23
2019-04-03T13:46:53.515Z,99200.75
2019-04-03T13:49:41.073Z,99195.73
2019-04-03T13:52:38.760Z,99193.91
2019-04-03T13:55:15.546Z,99198.80
2019-04-03T13:58:02.462Z,99192.03
2019-04-03T14:00:58.637Z,99196.15
2019-04-03T14:03:37.442Z,99194.22
2019-04-03T14:06:24.236Z,99188.88
2019-04-03T14:09:11.821Z,99184.70
2019-04-03T14:12:00.440Z,99177.17
2019-04-03T14:20:59.634Z,99167.51
2019-04-03T14:23:47.643Z,99171.42
2019-04-03T14:26:35.478Z,99174.17
2019-04-03T14:29:22.251Z,99168.50
2019-04-03T14:32:09.428Z,99171.48
2019-04-03T14:35:05.185Z,99167.19
2019-04-03T14:37:45.502Z,99160.45
2019-04-03T14:46:42.655Z,99167.66
2019-04-03T14:49:31.740Z,99159.94
2019-04-03T14:52:16.897Z,99161.75
2019-04-03T14:55:16.428Z,99161.02
2019-04-03T15:10:14.392Z,99143.51
2019-04-03T15:13:01.645Z,99137.47
2019-04-03T15:19:02.711Z,99129.40
2019-04-03T15:21:49.566Z,99118.55
2019-04-03T15:24:36.370Z,99125.61
2019-04-03T15:27:23.650Z,99113.98
2019-04-03T15:30:12.081Z,99116.39
2019-04-03T15:32:58.081Z,99109.85
2019-04-03T15:35:45.276Z,99101.33
2019-04-03T15:38:32.698Z,99097.36
2019-04-03T15:41:34.884Z,99093.36
2019-04-03T15:44:21.590Z,99086.39
2019-04-03T15:47:10.251Z,99080.27
2019-04-03T15:49:58.337Z,99074.28
2019-04-03T15:52:44.333Z,99066.53
2019-04-03T15:55:29.177Z,99063.14
2019-04-03T15:58:16.168Z,99065.42
2019-04-03T16:01:06.599Z,99066.61
2019-04-03T16:03:50.535Z,99060.00
2019-04-03T16:06:37.365Z,99063.42
2019-04-03T16:09:24.494Z,99062.91
2019-04-03T16:12:12.476Z,99055.64
2019-04-03T16:18:07.108Z,99054.97
2019-04-03T16:20:52.687Z,99049.84
2019-04-03T16:26:46.133Z,99043.48
2019-04-03T16:29:36.175Z,99049.71
2019-04-03T16:32:25.879Z,99042.97
2019-04-03T16:35:12.603Z,99043.95
2019-04-03T16:37:57.851Z,99043.89
2019-04-03T16:40:46.548Z,99036.69
2019-04-03T16:43:31.361Z,99025.63
2019-04-03T16:46:18.001Z,99020.67
2019-04-03T16:49:07.163Z,99022.21
2019-04-03T16:51:55.916Z,99022.02
2019-04-03T16:54:44.329Z,99011.91
2019-04-03T16:57:30.020Z,99016.52
2019-04-03T17:00:16.891Z,99015.06
2019-04-03T17:03:04.281Z,99004.19
2019-04-03T17:05:50.994Z,99012.66
2019-04-03T17:08:38.419Z,99019.88
2019-04-03T17:11:25.295Z,99016.03
2019-04-03T17:14:27.231Z,99019.63
2019-04-03T17:17:15.458Z,99017.60
2019-04-03T17:20:02.303Z,99007.22
2019-04-03T17:22:48.906Z,99008.25
2019-04-03T17:25:45.822Z,99020.11
2019-04-03T17:28:23.212Z,99027.11
2019-04-03T17:31:09.636Z,99015.52
2019-04-03T17:33:57.762Z,98998.59
2019-04-03T17:36:44.322Z,98983.06
2019-04-03T17:39:31.093Z,98982.84
2019-04-03T17:42:18.902Z,98986.11
2019-04-03T17:48:12.089Z,98970.80
2019-04-03T17:54:07.418Z,98965.28
2019-04-03T17:56:52.395Z,98963.36
2019-04-03T17:59:39.602Z,98962.20
2019-04-03T18:02:29.462Z,98964.33
2019-04-03T18:05:13.925Z,98971.84
2019-04-03T18:08:01.025Z,98974.55
2019-04-03T18:13:55.617Z,98972.16
2019-04-03T18:16:42.344Z,98974.84
2019-04-03T18:19:37.308Z,98980.08
2019-04-03T18:22:16.175Z,98965.38
2019-04-03T18:25:03.026Z,98961.61
2019-04-03T18:27:50.919Z,98959.80
2019-04-03T18:30:38.327Z,98961.64
2019-04-03T18:33:25.362Z,98961.28
2019-04-03T18:36:12.126Z,98957.72
2019-04-03T18:38:59.421Z,98953.09
2019-04-03T18:41:47.828Z,98947.37
2019-04-03T18:44:34.313Z,98941.91
2019-04-03T18:47:21.156Z,98940.28
2019-04-03T18:50:10.123Z,98942.41
2019-04-03T18:52:55.588Z,98941.42
2019-04-03T18:55:44.683Z,98931.83
2019-04-03T18:58:29.583Z,98922.61
2019-04-03T19:01:17.249Z,98926.81
2019-04-03T19:04:05.145Z,98924.59
2019-04-03T19:06:51.782Z,98922.11
2019-04-03T19:09:38.624Z,98927.19
2019-04-03T19:12:35.000Z,98915.04
2019-04-03T19:15:12.893Z,98916.95
2019-04-03T19:21:06.545Z,98909.63
2019-04-03T19:23:54.371Z,98916.27
2019-04-03T19:26:41.309Z,98913.09
2019-04-03T19:29:28.483Z,98913.45
2019-04-03T19:32:16.063Z,98916.41
2019-04-03T19:35:03.051Z,98919.66
2019-04-03T19:37:49.960Z,98919.63
2019-04-03T19:40:40.301Z,98920.67
2019-04-03T19:46:37.755Z,98914.36
2019-04-03T19:49:28.105Z,98911.45
2019-04-03T19:52:14.879Z,98912.70
2019-04-03T19:55:02.535Z,98913.36
2019-04-03T19:57:51.412Z,98903.37
2019-04-03T20:00:38.606Z,98904.16
2019-04-03T20:03:25.416Z,98892.73
2019-04-03T20:06:13.710Z,98885.72
2019-04-03T20:09:00.805Z,98890.11
2019-04-03T20:11:49.219Z,98892.66
2019-04-03T20:14:37.361Z,98897.47
2019-04-03T20:17:24.481Z,98897.00
2019-04-03T20:20:11.118Z,98892.53
2019-04-03T20:22:58.170Z,98887.85
2019-04-03T20:25:46.546Z,98891.39
2019-04-03T20:28:32.714Z,98883.34
2019-04-03T20:34:26.406Z,98883.81
2019-04-03T20:37:13.335Z,98880.95
2019-04-03T20:43:06.519Z,98874.39
2019-04-03T20:49:02.791Z,98876.72
2019-04-03T20:51:48.496Z,98862.28
2019-04-03T20:54:33.269Z,98862.09
2019-04-03T20:57:20.359Z,98853.18
2019-04-03T21:00:10.468Z,98851.56
2019-04-03T21:02:57.614Z,98846.66
2019-04-03T21:05:44.817Z,98844.70
2019-04-03T21:08:36.209Z,98845.03
2019-04-03T21:11:23.631Z,98843.34
2019-04-03T21:14:11.380Z,98843.16
2019-04-03T21:16:57.794Z,98847.20
2019-04-03T21:19:45.335Z,98847.97
2019-04-03T21:22:32.276Z,98853.77
2019-04-03T21:25:19.037Z,98846.38
2019-04-03T21:28:06.281Z,98845.48
2019-04-03T21:30:54.867Z,98837.45
2019-04-03T21:33:40.154Z,98838.60
2019-04-03T21:36:27.086Z,98839.38
2019-04-03T21:39:14.284Z,98840.66
2019-04-03T21:42:01.586Z,98838.42
2019-04-03T21:44:48.653Z,98834.95
2019-04-03T21:47:35.956Z,98834.00
2019-04-03T21:50:23.124Z,98827.16
2019-04-03T21:53:10.208Z,98833.84
2019-04-03T21:56:02.517Z,98825.47
2019-04-03T21:58:47.421Z,98825.56
2019-04-03T22:01:34.149Z,98816.10
2019-04-03T22:04:22.928Z,98811.20
2019-04-03T22:07:08.513Z,98815.31
2019-04-03T22:09:55.538Z,98818.42
2019-04-03T22:12:42.354Z,98813.47
2019-04-03T22:15:29.276Z,98810.09
2019-04-03T22:18:16.709Z,98801.91
2019-04-03T22:21:03.998Z,98802.02
2019-04-03T22:23:51.218Z,98797.19
2019-04-03T22:26:38.812Z,98791.97
2019-04-03T22:29:25.512Z,98795.03
2019-04-03T22:32:12.531Z,98797.65
2019-04-03T22:35:01.616Z,98791.84
2019-04-03T22:38:02.180Z,98801.80
2019-04-03T22:40:49.224Z,98817.22
2019-04-03T22:43:36.340Z,98842.75
2019-04-03T22:46:30.691Z,98853.22
2019-04-03T22:49:17.806Z,98871.38
2019-04-03T22:52:08.869Z,98885.33
2019-04-03T22:54:54.633Z,98902.19
2019-04-03T22:57:41.509Z,98895.81
2019-04-03T23:00:28.603Z,98879.13
2019-04-03T23:03:15.730Z,98891.55
2019-04-03T23:06:02.522Z,98897.47
2019-04-03T23:08:49.534Z,98860.52
2019-04-03T23:11:36.815Z,98855.95
2019-04-03T23:14:23.887Z,98876.17
2019-04-03T23:17:11.987Z,98880.86
2019-04-03T23:19:58.193Z,98866.43
2019-04-03T23:22:45.357Z,98858.31
2019-04-03T23:25:46.646Z,98870.12
2019-04-03T23:28:33.955Z,98881.14
2019-04-03T23:31:20.304Z,98876.48
2019-04-03T23:34:08.098Z,98860.31
2019-04-03T23:37:09.231Z,98882.05
2019-04-03T23:39:57.164Z,98865.52
2019-04-03T23:42:43.992Z,98847.47
2019-04-03T23:45:30.828Z,98855.42
2019-04-03T23:48:18.477Z,98844.14
2019-04-03T23:51:05.132Z,98844.84
2019-04-03T23:53:51.957Z,98848.70
2019-04-03T23:56:39.488Z,98841.11
2019-04-03T23:59:25.846Z,98848.89
